createdAt,value
2018-09-07T00:00:31.986Z,15.03
2018-09-07T00:03:01.976Z,15.53
2018-09-07T00:05:31.680Z,16.00
2018-09-07T00:08:01.427Z,16.33
2018-09-07T00:10:34.280Z,14.90
2018-09-07T00:13:05.308Z,14.67
2018-09-07T00:15:34.963Z,15.30
2018-09-07T00:18:04.606Z,15.87
2018-09-07T00:20:34.379Z,14.43
2018-09-07T00:23:03.968Z,15.67
2018-09-07T00:25:33.635Z,16.30
2018-09-07T00:28:03.251Z,16.83
2018-09-07T00:30:32.923Z,15.90
2018-09-07T00:33:02.560Z,15.90
2018-09-07T00:35:32.183Z,15.93
2018-09-07T00:38:01.822Z,14.93
2018-09-07T00:40:31.460Z,15.10
2018-09-07T00:43:01.082Z,17.20
2018-09-07T00:45:30.734Z,16.67
2018-09-07T00:48:00.349Z,16.70
2018-09-07T00:50:29.997Z,17.40
2018-09-07T00:52:59.623Z,15.63
2018-09-07T00:55:29.287Z,16.10
2018-09-07T00:57:59.054Z,15.00
2018-09-07T01:00:28.683Z,16.20
2018-09-07T01:02:58.311Z,16.30
2018-09-07T01:05:27.952Z,16.07
2018-09-07T01:07:57.631Z,15.07
2018-09-07T01:10:27.704Z,17.17
2018-09-07T01:12:57.325Z,15.77
2018-09-07T01:15:26.827Z,16.20
2018-09-07T01:17:56.360Z,15.67
2018-09-07T01:20:25.884Z,16.90
2018-09-07T01:22:55.382Z,15.80
2018-09-07T01:25:24.913Z,15.57
2018-09-07T01:27:54.484Z,16.00
2018-09-07T01:30:24.012Z,15.40
2018-09-07T01:32:58.168Z,16.27
2018-09-07T01:35:28.817Z,15.50
2018-09-07T01:38:35.265Z,14.70
2018-09-07T01:41:05.786Z,15.13
2018-09-07T01:43:35.383Z,16.37
2018-09-07T01:46:04.947Z,16.00
2018-09-07T01:48:34.558Z,16.23
2018-09-07T01:51:04.119Z,16.57
2018-09-07T01:53:40.441Z,15.77
2018-09-07T01:56:09.952Z,16.13
2018-09-07T01:58:39.534Z,16.70
2018-09-07T02:01:09.284Z,15.60
2018-09-07T02:03:38.873Z,15.97
2018-09-07T02:06:08.409Z,16.73
2018-09-07T02:08:38.185Z,16.07
2018-09-07T02:11:09.508Z,16.10
2018-09-07T02:13:39.574Z,16.23
2018-09-07T02:16:09.360Z,17.60
2018-09-07T02:18:38.933Z,16.53
2018-09-07T02:21:08.856Z,15.40
2018-09-07T02:23:38.390Z,16.20
2018-09-07T02:26:08.078Z,15.03
2018-09-07T02:28:37.832Z,17.10
2018-09-07T02:31:07.543Z,17.20
2018-09-07T02:33:37.994Z,17.10
2018-09-07T02:36:07.546Z,16.03
2018-09-07T02:38:37.121Z,17.10
2018-09-07T02:41:07.013Z,16.60
2018-09-07T02:43:36.587Z,17.33
2018-09-07T02:46:06.228Z,17.30
2018-09-07T02:48:35.818Z,15.33
2018-09-07T02:51:05.600Z,15.93
2018-09-07T02:53:35.205Z,27.30
2018-09-07T02:56:04.755Z,16.70
2018-09-07T02:58:34.863Z,16.63
2018-09-07T03:01:05.355Z,17.00
2018-09-07T03:03:34.987Z,16.27
2018-09-07T03:06:04.560Z,17.60
2018-09-07T03:08:34.252Z,15.40
2018-09-07T03:11:03.898Z,16.97
2018-09-07T03:13:33.452Z,18.33
2018-09-07T03:16:03.529Z,16.13
2018-09-07T03:18:33.152Z,17.60
2018-09-07T03:21:02.786Z,18.10
2018-09-07T03:23:32.400Z,17.93
2018-09-07T03:26:02.168Z,17.50
2018-09-07T03:28:31.708Z,17.70
2018-09-07T03:31:01.307Z,17.80
2018-09-07T03:33:30.882Z,17.93
2018-09-07T03:36:00.913Z,17.03
2018-09-07T03:38:30.718Z,16.60
2018-09-07T03:41:00.669Z,16.80
2018-09-07T03:43:30.225Z,17.23
2018-09-07T03:45:59.804Z,18.10
2018-09-07T03:48:29.452Z,18.13
2018-09-07T03:50:59.168Z,17.00
2018-09-07T03:53:28.770Z,17.80
2018-09-07T03:55:58.325Z,18.63
2018-09-07T03:58:27.969Z,19.13
2018-09-07T04:00:57.528Z,18.73
2018-09-07T04:03:27.073Z,18.87
2018-09-07T04:05:56.641Z,18.50
2018-09-07T04:08:26.206Z,19.70
2018-09-07T04:10:55.773Z,18.40
2018-09-07T04:13:25.381Z,20.40
2018-09-07T04:15:54.965Z,20.17
2018-09-07T04:18:24.556Z,19.47
2018-09-07T04:20:54.158Z,21.70
2018-09-07T04:23:27.805Z,21.13
2018-09-07T04:25:57.382Z,21.07
2018-09-07T04:28:27.029Z,22.00
2018-09-07T04:30:56.536Z,23.00
2018-09-07T04:33:26.081Z,21.93
2018-09-07T04:35:55.665Z,22.13
2018-09-07T04:38:25.327Z,25.40
2018-09-07T04:40:54.956Z,25.23
2018-09-07T04:43:24.569Z,21.67
2018-09-07T04:45:54.280Z,23.10
2018-09-07T04:48:23.952Z,23.23
2018-09-07T04:50:53.456Z,21.97
2018-09-07T04:53:23.134Z,22.87
2018-09-07T04:55:52.955Z,23.43
2018-09-07T04:58:22.548Z,24.90
2018-09-07T05:00:52.500Z,22.67
2018-09-07T05:03:22.224Z,23.30
2018-09-07T05:05:52.096Z,23.73
2018-09-07T05:08:21.695Z,24.53
2018-09-07T05:10:51.282Z,24.53
2018-09-07T05:13:21.024Z,27.20
2018-09-07T05:15:50.673Z,23.60
2018-09-07T05:18:20.228Z,24.93
2018-09-07T05:20:49.788Z,24.53
2018-09-07T05:23:19.507Z,25.83
2018-09-07T05:25:49.085Z,25.40
2018-09-07T05:28:18.689Z,24.73
2018-09-07T05:30:48.307Z,25.23
2018-09-07T05:33:17.870Z,25.40
2018-09-07T05:35:47.395Z,25.70
2018-09-07T05:38:16.928Z,23.43
2018-09-07T05:40:46.493Z,23.90
2018-09-07T05:43:16.428Z,25.77
2018-09-07T05:45:46.001Z,25.70
2018-09-07T05:48:15.566Z,25.70
2018-09-07T05:50:45.097Z,27.13
2018-09-07T05:53:14.661Z,25.27
2018-09-07T05:55:44.180Z,24.10
2018-09-07T05:58:13.742Z,27.57
2018-09-07T06:00:43.465Z,26.00
2018-09-07T06:03:13.024Z,24.13
2018-09-07T06:05:42.589Z,24.60
2018-09-07T06:08:12.156Z,23.60
2018-09-07T06:10:41.690Z,22.93
2018-09-07T06:13:11.348Z,24.43
2018-09-07T06:15:40.971Z,23.90
2018-09-07T06:18:10.517Z,24.17
2018-09-07T06:20:40.138Z,24.23
2018-09-07T06:23:09.854Z,24.93
2018-09-07T06:25:39.416Z,22.00
2018-09-07T06:28:08.965Z,22.10
2018-09-07T06:30:38.553Z,24.03
2018-09-07T06:33:08.220Z,23.70
2018-09-07T06:35:37.776Z,25.00
2018-09-07T06:38:07.444Z,22.87
2018-09-07T06:40:37.023Z,25.00
2018-09-07T06:43:06.653Z,24.30
2018-09-07T06:45:36.261Z,23.90
2018-09-07T06:48:05.831Z,25.27
2018-09-07T06:50:35.428Z,23.97
2018-09-07T06:53:05.109Z,26.57
2018-09-07T06:55:34.700Z,25.70
2018-09-07T06:58:04.313Z,24.97
2018-09-07T07:00:34.120Z,26.20
2018-09-07T07:03:03.645Z,24.90
2018-09-07T07:05:33.217Z,23.50
2018-09-07T07:08:02.913Z,24.50
2018-09-07T07:10:32.492Z,24.50
2018-09-07T07:13:02.073Z,25.30
2018-09-07T07:15:31.832Z,24.20
2018-09-07T07:18:01.393Z,24.47
2018-09-07T07:20:33.117Z,24.07
2018-09-07T07:23:02.922Z,24.70
2018-09-07T07:25:32.501Z,24.20
2018-09-07T07:28:02.845Z,26.97
2018-09-07T07:30:32.432Z,24.90
2018-09-07T07:33:01.992Z,24.87
2018-09-07T07:35:31.689Z,24.80
2018-09-07T07:38:01.233Z,25.93
2018-09-07T07:40:30.784Z,24.30
2018-09-07T07:43:00.501Z,22.83
2018-09-07T07:45:30.982Z,23.37
2018-09-07T07:48:00.861Z,21.23
2018-09-07T07:50:30.442Z,18.90
2018-09-07T07:53:00.013Z,20.07
2018-09-07T07:55:29.772Z,19.60
2018-09-07T07:57:59.589Z,18.40
2018-09-07T08:00:29.159Z,25.37
2018-09-07T08:02:58.746Z,19.70
2018-09-07T08:05:28.302Z,19.43
2018-09-07T08:07:57.872Z,19.60
2018-09-07T08:10:27.430Z,18.90
2018-09-07T08:12:56.981Z,20.33
2018-09-07T08:15:26.512Z,20.60
2018-09-07T08:17:56.165Z,20.53
2018-09-07T08:20:25.738Z,19.70
2018-09-07T08:22:55.329Z,20.97
2018-09-07T08:25:24.877Z,19.70
2018-09-07T08:27:54.582Z,20.33
2018-09-07T08:30:24.107Z,19.10
2018-09-07T08:32:53.824Z,19.10
2018-09-07T08:35:23.206Z,19.80
2018-09-07T08:37:52.704Z,19.53
2018-09-07T08:40:22.286Z,23.00
2018-09-07T08:42:51.824Z,16.57
2018-09-07T08:45:21.357Z,20.23
2018-09-07T08:47:50.922Z,18.07
2018-09-07T08:50:24.489Z,15.70
2018-09-07T08:52:55.448Z,16.20
2018-09-07T08:55:25.380Z,18.40
2018-09-07T08:57:54.918Z,18.27
2018-09-07T09:00:24.522Z,17.87
2018-09-07T09:02:54.007Z,16.47
2018-09-07T09:05:23.524Z,17.97
2018-09-07T09:07:53.061Z,17.60
2018-09-07T09:10:23.609Z,17.70
2018-09-07T09:12:53.146Z,16.87
2018-09-07T09:15:22.774Z,16.90
2018-09-07T09:17:52.432Z,16.73
2018-09-07T09:20:22.025Z,16.37
2018-09-07T09:22:51.580Z,16.13
2018-09-07T09:25:21.204Z,15.37
2018-09-07T09:27:50.768Z,16.17
2018-09-07T09:30:20.310Z,15.17
2018-09-07T09:32:49.961Z,16.23
2018-09-07T09:35:19.465Z,16.37
2018-09-07T09:37:48.993Z,15.50
2018-09-07T09:40:18.565Z,14.80
2018-09-07T09:42:48.182Z,15.40
2018-09-07T09:45:17.711Z,14.03
2018-09-07T09:47:47.342Z,14.83
2018-09-07T09:50:16.904Z,13.53
2018-09-07T09:52:46.481Z,15.77
2018-09-07T09:55:16.051Z,16.17
2018-09-07T09:57:45.802Z,15.00
2018-09-07T10:00:20.549Z,15.23
2018-09-07T10:02:54.441Z,14.70
2018-09-07T10:05:24.011Z,11.93
2018-09-07T10:07:53.529Z,12.07
2018-09-07T10:10:23.074Z,12.83
2018-09-07T10:12:52.694Z,11.93
2018-09-07T10:15:22.275Z,12.30
2018-09-07T10:17:51.821Z,12.40
2018-09-07T10:20:21.741Z,12.00
2018-09-07T10:22:51.252Z,11.17
2018-09-07T10:25:20.856Z,12.00
2018-09-07T10:27:50.420Z,13.30
2018-09-07T10:30:19.978Z,12.77
2018-09-07T10:32:49.545Z,13.63
2018-09-07T10:35:19.108Z,15.50
2018-09-07T10:37:48.663Z,17.37
2018-09-07T10:40:18.297Z,18.50
2018-09-07T10:42:47.857Z,18.60
2018-09-07T10:45:17.426Z,20.83
2018-09-07T10:47:47.136Z,22.37
2018-09-07T10:50:16.743Z,23.70
2018-09-07T10:52:46.289Z,24.73
2018-09-07T10:55:16.057Z,23.87
2018-09-07T10:57:45.631Z,24.50
2018-09-07T11:00:15.375Z,23.17
2018-09-07T11:02:44.901Z,22.97
2018-09-07T11:05:14.470Z,22.07
2018-09-07T11:07:44.304Z,21.30
2018-09-07T11:10:14.150Z,22.17
2018-09-07T11:12:43.756Z,23.63
2018-09-07T11:15:13.244Z,23.80
2018-09-07T11:17:42.781Z,22.50
2018-09-07T11:20:12.423Z,23.33
2018-09-07T11:22:41.944Z,26.07
2018-09-07T11:25:11.504Z,22.77
2018-09-07T11:27:41.068Z,24.80
2018-09-07T11:30:10.643Z,24.37
2018-09-07T11:32:40.171Z,26.07
2018-09-07T11:35:09.762Z,26.10
2018-09-07T11:37:39.288Z,25.00
2018-09-07T11:40:08.883Z,27.03
2018-09-07T11:42:38.491Z,26.30
2018-09-07T11:45:08.041Z,34.50
2018-09-07T11:47:37.577Z,27.77
2018-09-07T11:50:07.459Z,30.40
2018-09-07T11:52:36.957Z,29.23
2018-09-07T11:55:06.607Z,30.80
2018-09-07T11:57:36.183Z,32.47
2018-09-07T12:00:05.777Z,32.90
2018-09-07T12:02:35.350Z,32.20
2018-09-07T12:05:04.903Z,32.73
2018-09-07T12:07:34.408Z,32.07
2018-09-07T12:10:10.601Z,31.70
2018-09-07T12:12:40.262Z,30.80
2018-09-07T12:15:09.838Z,32.20
2018-09-07T12:17:39.402Z,32.27
2018-09-07T12:20:08.931Z,31.53
2018-09-07T12:22:38.460Z,34.07
2018-09-07T12:25:08.164Z,29.87
2018-09-07T12:27:37.778Z,32.70
2018-09-07T12:30:07.929Z,30.60
2018-09-07T12:32:37.540Z,29.90
2018-09-07T12:35:07.102Z,29.00
2018-09-07T12:37:37.373Z,28.17
2018-09-07T12:40:07.409Z,30.80
2018-09-07T12:42:37.487Z,29.90
2018-09-07T12:45:07.132Z,29.97
2018-09-07T12:47:36.940Z,30.20
2018-09-07T12:50:06.948Z,26.50
2018-09-07T12:52:36.596Z,27.27
2018-09-07T12:55:06.320Z,28.53
2018-09-07T12:57:36.010Z,28.33
2018-09-07T13:00:05.577Z,27.63
2018-09-07T13:02:35.235Z,27.00
2018-09-07T13:05:04.972Z,28.37
2018-09-07T13:07:34.624Z,29.70
2018-09-07T13:10:04.285Z,25.53
2018-09-07T13:12:33.824Z,26.77
2018-09-07T13:15:06.672Z,28.40
2018-09-07T13:17:36.205Z,27.83
2018-09-07T13:20:06.009Z,26.90
2018-09-07T13:22:35.584Z,25.93
2018-09-07T13:25:05.201Z,25.30
2018-09-07T13:27:34.778Z,24.53
2018-09-07T13:30:04.526Z,25.57
2018-09-07T13:32:34.093Z,25.67
2018-09-07T13:35:03.661Z,29.90
2018-09-07T13:37:33.274Z,29.17
2018-09-07T13:40:02.881Z,26.60
2018-09-07T13:42:32.459Z,23.53
2018-09-07T13:45:02.036Z,24.17
2018-09-07T13:47:31.585Z,21.00
2018-09-07T13:50:01.192Z,23.10
2018-09-07T13:52:30.997Z,20.33
2018-09-07T13:55:00.852Z,18.57
2018-09-07T13:57:30.495Z,19.20
2018-09-07T14:00:00.123Z,18.00
2018-09-07T14:02:30.055Z,19.40
2018-09-07T14:04:59.932Z,17.87
2018-09-07T14:07:29.617Z,17.77
2018-09-07T14:09:59.231Z,16.73
2018-09-07T14:12:30.853Z,18.23
2018-09-07T14:15:00.408Z,17.50
2018-09-07T14:17:29.975Z,14.53
2018-09-07T14:19:59.547Z,16.30
2018-09-07T14:22:29.130Z,17.10
2018-09-07T14:24:58.764Z,29.23
2018-09-07T14:27:28.509Z,21.27
2018-09-07T14:29:58.073Z,22.10
2018-09-07T14:32:28.016Z,17.80
2018-09-07T14:34:57.722Z,14.83
2018-09-07T14:37:27.262Z,11.90
2018-09-07T14:39:56.960Z,10.43
2018-09-07T14:42:26.557Z,9.93
2018-09-07T14:44:56.148Z,11.07
2018-09-07T14:47:25.692Z,10.47
2018-09-07T14:49:55.231Z,11.77
2018-09-07T14:52:24.763Z,11.47
2018-09-07T14:54:54.382Z,11.40
2018-09-07T14:57:23.945Z,11.53
2018-09-07T14:59:53.506Z,11.73
2018-09-07T15:02:23.067Z,11.77
2018-09-07T15:04:52.800Z,12.67
2018-09-07T15:07:22.356Z,12.10
2018-09-07T15:09:52.017Z,10.70
2018-09-07T15:12:21.590Z,10.40
2018-09-07T15:14:51.152Z,9.13
2018-09-07T15:17:20.755Z,8.50
2018-09-07T15:19:50.455Z,9.27
2018-09-07T15:22:20.030Z,8.00
2018-09-07T15:24:49.788Z,8.90
2018-09-07T15:27:22.193Z,7.67
2018-09-07T15:29:51.772Z,7.73
2018-09-07T15:32:21.300Z,6.57
2018-09-07T15:34:50.846Z,7.30
2018-09-07T15:37:20.420Z,7.30
2018-09-07T15:39:50.056Z,7.00
2018-09-07T15:42:19.947Z,7.30
2018-09-07T15:44:49.398Z,6.47
2018-09-07T15:47:19.126Z,7.27
2018-09-07T15:49:48.647Z,6.20
2018-09-07T15:52:18.209Z,7.40
2018-09-07T15:54:47.906Z,6.93
2018-09-07T15:57:17.516Z,6.30
2018-09-07T15:59:47.539Z,6.53
2018-09-07T16:02:17.111Z,5.80
2018-09-07T16:04:46.674Z,7.00
2018-09-07T16:07:16.233Z,5.57
2018-09-07T16:09:45.817Z,5.07
2018-09-07T16:12:15.355Z,7.50
2018-09-07T16:14:45.021Z,4.60
2018-09-07T16:17:14.783Z,5.57
2018-09-07T16:19:44.343Z,4.73
2018-09-07T16:22:13.892Z,5.37
2018-09-07T16:24:43.524Z,5.13
2018-09-07T16:27:13.045Z,4.80
2018-09-07T16:29:42.611Z,4.63
2018-09-07T16:32:12.177Z,5.77
2018-09-07T16:34:48.391Z,7.60
2018-09-07T16:37:19.682Z,5.53
2018-09-07T16:39:49.216Z,4.83
2018-09-07T16:42:18.914Z,5.50
2018-09-07T16:44:48.477Z,5.57
2018-09-07T16:47:18.044Z,5.10
2018-09-07T16:49:47.626Z,5.67
2018-09-07T16:52:17.234Z,7.37
2018-09-07T16:54:46.767Z,7.43
2018-09-07T16:57:16.365Z,7.10
2018-09-07T16:59:46.016Z,7.77
2018-09-07T17:02:15.532Z,8.23
2018-09-07T17:04:45.161Z,5.80
2018-09-07T17:07:14.707Z,8.70
2018-09-07T17:09:44.315Z,6.73
2018-09-07T17:12:13.965Z,12.83
2018-09-07T17:14:43.525Z,8.17
2018-09-07T17:17:13.048Z,8.40
2018-09-07T17:19:42.625Z,8.10
2018-09-07T17:22:12.198Z,6.97
2018-09-07T17:24:41.700Z,8.90
2018-09-07T17:27:11.236Z,7.67
2018-09-07T17:29:40.744Z,8.13
2018-09-07T17:32:10.376Z,8.53
2018-09-07T17:34:39.931Z,8.20
2018-09-07T17:37:09.481Z,8.50
2018-09-07T17:39:38.992Z,7.87
2018-09-07T17:42:08.605Z,7.73
2018-09-07T17:44:38.332Z,8.60
2018-09-07T17:47:07.872Z,8.10
2018-09-07T17:49:38.157Z,9.07
2018-09-07T17:52:07.697Z,7.90
2018-09-07T17:54:37.356Z,9.50
2018-09-07T17:57:07.758Z,9.90
2018-09-07T17:59:37.306Z,9.10
2018-09-07T18:02:06.868Z,8.13
2018-09-07T18:04:36.413Z,14.93
2018-09-07T18:07:06.124Z,8.63
2018-09-07T18:09:35.649Z,8.47
2018-09-07T18:12:05.229Z,9.97
2018-09-07T18:14:34.940Z,8.37
2018-09-07T18:17:04.544Z,9.33
2018-09-07T18:19:34.060Z,8.70
2018-09-07T18:22:03.623Z,9.93
2018-09-07T18:24:33.172Z,9.20
2018-09-07T18:27:02.747Z,10.80
2018-09-07T18:29:32.538Z,11.37
2018-09-07T18:32:02.032Z,9.13
2018-09-07T18:34:31.581Z,9.23
2018-09-07T18:37:01.321Z,8.03
2018-09-07T18:39:30.886Z,7.17
2018-09-07T18:42:00.424Z,7.03
2018-09-07T18:44:30.104Z,7.13
2018-09-07T18:46:59.780Z,8.00
2018-09-07T18:49:29.296Z,7.40
2018-09-07T18:51:58.979Z,8.60
2018-09-07T18:54:28.476Z,7.73
2018-09-07T18:56:58.059Z,6.20
2018-09-07T18:59:27.714Z,5.23
2018-09-07T19:01:57.256Z,4.50
2018-09-07T19:04:26.824Z,4.70
2018-09-07T19:06:56.610Z,5.00
2018-09-07T19:09:26.198Z,4.50
2018-09-07T19:11:55.808Z,3.90
2018-09-07T19:14:25.439Z,3.57
2018-09-07T19:16:55.045Z,3.30
2018-09-07T19:19:24.764Z,4.20
2018-09-07T19:21:54.312Z,4.50
2018-09-07T19:24:23.824Z,3.30
2018-09-07T19:26:53.474Z,5.23
2018-09-07T19:29:23.082Z,3.40
2018-09-07T19:31:52.680Z,2.70
2018-09-07T19:34:22.208Z,13.70
2018-09-07T19:36:52.017Z,8.30
2018-09-07T19:39:21.509Z,7.00
2018-09-07T19:41:51.107Z,2.60
2018-09-07T19:44:20.786Z,4.67
2018-09-07T19:46:50.398Z,3.43
2018-09-07T19:49:19.937Z,5.23
2018-09-07T19:51:49.653Z,3.80
2018-09-07T19:54:19.213Z,3.97
2018-09-07T19:56:48.746Z,4.60
2018-09-07T19:59:18.396Z,3.33
2018-09-07T20:01:47.986Z,3.00
2018-09-07T20:04:17.612Z,3.20
2018-09-07T20:06:47.321Z,3.60
2018-09-07T20:09:16.876Z,2.80
2018-09-07T20:11:46.457Z,3.40
2018-09-07T20:14:16.001Z,2.80
2018-09-07T20:16:45.534Z,3.10
2018-09-07T20:19:15.074Z,2.70
2018-09-07T20:21:44.628Z,2.93
2018-09-07T20:24:14.167Z,3.33
2018-09-07T20:26:43.801Z,3.03
2018-09-07T20:29:13.337Z,3.10
2018-09-07T20:31:42.852Z,2.60
2018-09-07T20:34:12.468Z,2.57
2018-09-07T20:36:42.148Z,2.90
2018-09-07T20:39:12.183Z,3.30
2018-09-07T20:41:41.689Z,3.73
2018-09-07T20:44:11.309Z,3.77
2018-09-07T20:46:40.896Z,3.50
2018-09-07T20:49:10.420Z,17.40
2018-09-07T20:51:40.254Z,5.30
2018-09-07T20:54:09.774Z,4.80
2018-09-07T20:56:39.436Z,3.93
2018-09-07T20:59:08.953Z,5.27
2018-09-07T21:01:38.448Z,5.67
2018-09-07T21:04:08.174Z,6.50
2018-09-07T21:06:37.747Z,5.73
2018-09-07T21:09:07.795Z,7.10
2018-09-07T21:11:37.372Z,5.97
2018-09-07T21:14:06.924Z,6.10
2018-09-07T21:16:36.510Z,6.10
2018-09-07T21:19:06.307Z,4.87
2018-09-07T21:21:35.829Z,5.20
2018-09-07T21:24:05.384Z,7.67
2018-09-07T21:26:34.947Z,6.50
2018-09-07T21:29:04.555Z,5.53
2018-09-07T21:31:34.041Z,5.60
2018-09-07T21:34:03.536Z,5.97
2018-09-07T21:36:33.367Z,5.50
2018-09-07T21:39:03.008Z,5.40
2018-09-07T21:41:32.580Z,4.90
2018-09-07T21:44:02.132Z,6.17
2018-09-07T21:46:31.680Z,6.50
2018-09-07T21:49:01.241Z,5.70
2018-09-07T21:51:30.807Z,5.67
2018-09-07T21:54:00.334Z,7.27
2018-09-07T21:56:29.900Z,5.23
2018-09-07T21:58:59.544Z,6.03
2018-09-07T22:01:29.220Z,5.73
2018-09-07T22:03:58.845Z,5.60
2018-09-07T22:06:28.388Z,7.07
2018-09-07T22:08:57.908Z,6.80
2018-09-07T22:11:27.432Z,7.93
2018-09-07T22:13:56.955Z,10.17
2018-09-07T22:16:26.533Z,7.40
2018-09-07T22:18:56.081Z,6.83
2018-09-07T22:21:25.808Z,7.00
2018-09-07T22:23:55.413Z,6.03
2018-09-07T22:26:24.944Z,6.40
2018-09-07T22:28:54.619Z,6.93
2018-09-07T22:31:24.236Z,5.70
2018-09-07T22:33:53.775Z,6.13
2018-09-07T22:36:23.378Z,7.03
2018-09-07T22:38:52.891Z,6.80
2018-09-07T22:41:22.417Z,7.00
2018-09-07T22:43:51.941Z,6.10
2018-09-07T22:46:21.427Z,6.40
2018-09-07T22:48:50.983Z,5.77
2018-09-07T22:51:20.586Z,5.63
2018-09-07T22:53:50.173Z,6.13
2018-09-07T22:56:19.696Z,5.93
2018-09-07T22:58:49.309Z,5.57
2018-09-07T23:01:18.889Z,5.37
2018-09-07T23:03:48.548Z,5.40
2018-09-07T23:06:22.170Z,5.50
2018-09-07T23:08:51.725Z,5.63
2018-09-07T23:11:21.302Z,6.10
2018-09-07T23:13:50.936Z,5.30
2018-09-07T23:16:20.430Z,5.37
2018-09-07T23:18:49.992Z,5.50
2018-09-07T23:21:19.692Z,5.10
2018-09-07T23:23:49.280Z,4.77
2018-09-07T23:26:18.796Z,4.97
2018-09-07T23:28:48.343Z,4.43
2018-09-07T23:31:18.015Z,5.37
2018-09-07T23:33:47.560Z,5.00
2018-09-07T23:36:17.100Z,4.80
2018-09-07T23:38:46.637Z,4.80
2018-09-07T23:41:16.221Z,5.90
2018-09-07T23:43:45.732Z,6.90
2018-09-07T23:46:15.275Z,5.10
2018-09-07T23:48:44.773Z,4.43
2018-09-07T23:51:14.448Z,4.80
2018-09-07T23:53:44.072Z,4.10
2018-09-07T23:56:13.661Z,4.80
2018-09-07T23:58:43.371Z,3.70
